createdAt,value
2023-05-18T00:00:11.505Z,4.03
2023-05-18T00:02:59.393Z,4.65
2023-05-18T00:05:47.276Z,3.72
2023-05-18T00:08:37.117Z,3.58
2023-05-18T00:11:24.825Z,3.50
2023-05-18T00:14:12.484Z,3.22
2023-05-18T00:17:01.901Z,3.38
2023-05-18T00:19:50.405Z,3.25
2023-05-18T00:22:39.156Z,3.58
2023-05-18T00:25:28.667Z,3.10
2023-05-18T00:28:17.638Z,3.00
2023-05-18T00:31:06.439Z,3.25
2023-05-18T00:33:54.310Z,2.97
2023-05-18T00:36:42.523Z,2.80
2023-05-18T00:39:30.144Z,2.92
2023-05-18T00:42:19.132Z,3.00
2023-05-18T00:45:08.880Z,3.05
2023-05-18T00:47:56.676Z,2.97
2023-05-18T00:50:44.587Z,3.03
2023-05-18T00:53:33.548Z,3.15
2023-05-18T00:56:23.529Z,3.10
2023-05-18T00:59:12.563Z,2.95
2023-05-18T01:02:01.631Z,3.55
2023-05-18T01:04:49.392Z,2.95
2023-05-18T01:07:37.573Z,3.25
2023-05-18T01:10:25.210Z,3.42
2023-05-18T01:13:24.421Z,3.25
2023-05-18T01:16:24.260Z,2.92
2023-05-18T01:19:51.402Z,3.25
2023-05-18T01:23:10.171Z,3.20
2023-05-18T01:26:15.757Z,3.30
2023-05-18T01:29:11.485Z,2.80
2023-05-18T01:31:59.518Z,3.42
2023-05-18T01:34:47.409Z,3.08
2023-05-18T01:37:35.205Z,3.10
2023-05-18T01:40:24.011Z,3.10
2023-05-18T01:43:19.989Z,3.30
2023-05-18T01:46:32.408Z,3.25
2023-05-18T01:49:31.974Z,3.20
2023-05-18T01:52:28.822Z,3.40
2023-05-18T01:55:19.084Z,3.17
2023-05-18T01:58:09.308Z,3.65
2023-05-18T02:00:58.349Z,3.30
2023-05-18T02:03:46.063Z,3.00
2023-05-18T02:06:33.839Z,3.35
2023-05-18T02:09:22.048Z,3.50
2023-05-18T02:12:10.093Z,3.30
2023-05-18T02:14:58.485Z,2.95
2023-05-18T02:17:47.408Z,3.13
2023-05-18T02:20:35.234Z,3.08
2023-05-18T02:23:22.775Z,3.58
2023-05-18T02:26:13.320Z,3.22
2023-05-18T02:29:00.913Z,3.13
2023-05-18T02:31:48.529Z,3.28
2023-05-18T02:34:38.280Z,2.95
2023-05-18T02:37:26.363Z,3.25
2023-05-18T02:40:16.019Z,3.05
2023-05-18T02:43:03.843Z,3.00
2023-05-18T02:45:51.425Z,2.80
2023-05-18T02:48:39.146Z,2.90
2023-05-18T02:51:28.170Z,2.88
2023-05-18T02:54:15.997Z,3.20
2023-05-18T02:57:03.401Z,2.90
2023-05-18T02:59:50.951Z,3.40
2023-05-18T03:02:38.884Z,2.90
2023-05-18T03:05:26.873Z,3.13
2023-05-18T03:08:15.653Z,2.67
2023-05-18T03:11:04.047Z,3.30
2023-05-18T03:13:52.036Z,3.17
2023-05-18T03:16:40.675Z,3.00
2023-05-18T03:19:28.525Z,3.05
2023-05-18T03:22:16.095Z,2.83
2023-05-18T03:25:06.016Z,2.85
2023-05-18T03:27:53.929Z,3.30
2023-05-18T03:30:41.952Z,3.38
2023-05-18T03:33:29.532Z,3.17
2023-05-18T03:36:17.704Z,3.05
2023-05-18T03:39:06.767Z,2.88
2023-05-18T03:41:55.787Z,2.70
2023-05-18T03:44:43.661Z,2.80
2023-05-18T03:47:31.247Z,3.28
2023-05-18T03:50:18.877Z,3.03
2023-05-18T03:53:06.479Z,3.13
2023-05-18T03:55:54.167Z,3.33
2023-05-18T03:58:44.449Z,3.03
2023-05-18T04:01:36.863Z,3.00
2023-05-18T04:04:27.529Z,2.78
2023-05-18T04:07:17.054Z,2.83
2023-05-18T04:10:05.309Z,2.67
2023-05-18T04:12:53.341Z,3.15
2023-05-18T04:15:42.293Z,2.72
2023-05-18T04:18:30.351Z,2.92
2023-05-18T04:21:19.449Z,2.70
2023-05-18T04:24:08.613Z,2.90
2023-05-18T04:26:59.384Z,3.45
2023-05-18T04:29:47.430Z,2.92
2023-05-18T04:32:36.903Z,3.00
2023-05-18T04:35:24.861Z,3.03
2023-05-18T04:38:12.856Z,3.20
2023-05-18T04:41:05.298Z,2.90
2023-05-18T04:43:54.367Z,3.03
2023-05-18T04:46:41.836Z,2.92
2023-05-18T04:49:33.093Z,3.00
2023-05-18T04:52:20.708Z,3.00
2023-05-18T04:55:10.848Z,3.30
2023-05-18T04:58:00.364Z,3.00
2023-05-18T05:00:48.161Z,3.00
2023-05-18T05:03:35.785Z,3.08
2023-05-18T05:06:24.901Z,3.20
2023-05-18T05:09:14.179Z,2.83
2023-05-18T05:12:02.139Z,2.90
2023-05-18T05:14:49.926Z,3.47
2023-05-18T05:17:37.611Z,3.00
2023-05-18T05:20:25.202Z,3.00
2023-05-18T05:23:14.159Z,2.90
2023-05-18T05:26:01.638Z,2.78
2023-05-18T05:28:49.449Z,2.90
2023-05-18T05:31:37.464Z,3.30
2023-05-18T05:34:25.230Z,3.33
2023-05-18T05:37:12.743Z,3.08
2023-05-18T05:40:01.588Z,2.97
2023-05-18T05:42:49.616Z,2.58
2023-05-18T05:45:37.217Z,2.90
2023-05-18T05:48:24.741Z,3.15
2023-05-18T05:51:12.121Z,2.83
2023-05-18T05:53:59.635Z,2.70
2023-05-18T05:56:48.502Z,2.58
2023-05-18T05:59:36.335Z,3.03
2023-05-18T06:02:24.089Z,2.60
2023-05-18T06:05:12.191Z,2.50
2023-05-18T06:07:59.982Z,2.55
2023-05-18T06:10:47.531Z,3.05
2023-05-18T06:13:36.516Z,2.88
2023-05-18T06:16:24.622Z,3.25
2023-05-18T06:19:12.583Z,2.53
2023-05-18T06:22:00.500Z,2.70
2023-05-18T06:24:48.098Z,2.75
2023-05-18T06:27:35.898Z,2.75
2023-05-18T06:30:24.671Z,2.40
2023-05-18T06:33:12.432Z,3.00
2023-05-18T06:35:59.851Z,2.58
2023-05-18T06:38:47.675Z,2.95
2023-05-18T06:41:35.552Z,2.70
2023-05-18T06:44:23.049Z,2.53
2023-05-18T06:47:11.849Z,3.00
2023-05-18T06:49:59.659Z,3.08
2023-05-18T06:52:47.259Z,2.75
2023-05-18T06:55:34.748Z,2.58
2023-05-18T06:58:22.711Z,3.67
2023-05-18T07:01:11.031Z,3.80
2023-05-18T07:04:00.241Z,3.78
2023-05-18T07:06:48.071Z,3.20
2023-05-18T07:09:36.990Z,3.38
2023-05-18T07:12:26.118Z,3.15
2023-05-18T07:15:13.898Z,3.08
2023-05-18T07:18:01.681Z,2.78
2023-05-18T07:20:50.827Z,2.80
2023-05-18T07:23:38.554Z,2.20
2023-05-18T07:26:27.078Z,3.20
2023-05-18T07:29:14.952Z,2.20
2023-05-18T07:32:02.616Z,3.30
2023-05-18T07:34:50.469Z,3.28
2023-05-18T07:37:39.348Z,2.50
2023-05-18T07:40:27.117Z,4.32
2023-05-18T07:43:14.580Z,5.50
2023-05-18T07:46:02.274Z,6.30
2023-05-18T07:48:50.090Z,2.90
2023-05-18T07:51:38.029Z,3.35
2023-05-18T07:54:27.758Z,3.20
2023-05-18T07:57:15.437Z,3.67
2023-05-18T08:00:04.993Z,3.60
2023-05-18T08:02:53.140Z,3.75
2023-05-18T08:05:40.867Z,3.90
2023-05-18T08:08:28.859Z,3.03
2023-05-18T08:11:17.676Z,3.95
2023-05-18T08:14:05.409Z,3.33
2023-05-18T08:16:56.243Z,3.30
2023-05-18T08:19:44.015Z,2.90
2023-05-18T08:22:31.730Z,3.28
2023-05-18T08:25:19.225Z,4.82
2023-05-18T08:28:08.181Z,4.53
2023-05-18T08:30:55.998Z,4.47
2023-05-18T08:33:43.666Z,5.78
2023-05-18T08:36:31.676Z,4.55
2023-05-18T08:39:19.214Z,6.47
2023-05-18T08:42:17.454Z,4.88
2023-05-18T08:45:15.060Z,6.15
2023-05-18T08:48:04.910Z,5.85
2023-05-18T08:50:56.611Z,6.88
2023-05-18T08:53:47.262Z,4.45
2023-05-18T08:56:35.384Z,3.97
2023-05-18T08:59:28.090Z,4.68
2023-05-18T09:02:17.920Z,3.45
2023-05-18T09:05:08.288Z,2.95
2023-05-18T09:07:57.600Z,3.35
2023-05-18T09:10:46.212Z,3.15
2023-05-18T09:13:33.722Z,3.08
2023-05-18T09:16:21.425Z,3.92
2023-05-18T09:19:11.033Z,3.42
2023-05-18T09:21:58.764Z,4.47
2023-05-18T09:24:46.529Z,4.40
2023-05-18T09:27:34.309Z,2.88
2023-05-18T09:30:22.011Z,3.20
2023-05-18T09:33:19.132Z,2.60
2023-05-18T09:36:10.419Z,2.42
2023-05-18T09:38:58.799Z,2.38
2023-05-18T09:41:46.497Z,3.15
2023-05-18T09:44:35.929Z,2.50
2023-05-18T09:47:23.568Z,2.95
2023-05-18T09:50:11.837Z,2.45
2023-05-18T09:53:01.758Z,2.72
2023-05-18T09:55:51.063Z,3.20
2023-05-18T09:58:40.336Z,2.53
2023-05-18T10:01:27.988Z,3.20
2023-05-18T10:04:15.580Z,2.63
2023-05-18T10:07:03.663Z,3.67
2023-05-18T10:10:05.407Z,2.83
2023-05-18T10:12:55.695Z,5.72
2023-05-18T10:15:50.858Z,2.95
2023-05-18T10:18:39.797Z,4.28
2023-05-18T10:21:32.095Z,3.47
2023-05-18T10:24:22.857Z,3.45
2023-05-18T10:27:15.921Z,3.80
2023-05-18T10:30:05.364Z,5.43
2023-05-18T10:32:57.961Z,2.80
2023-05-18T10:35:49.393Z,7.60
2023-05-18T10:38:40.517Z,6.97
2023-05-18T10:41:29.916Z,6.28
2023-05-18T10:44:19.292Z,5.05
2023-05-18T10:47:11.530Z,2.70
2023-05-18T10:52:50.226Z,2.72
2023-05-18T10:55:37.779Z,2.83
2023-05-18T10:58:28.691Z,2.70
2023-05-18T11:01:18.234Z,3.05
2023-05-18T11:04:06.519Z,2.65
2023-05-18T11:07:00.003Z,2.90
2023-05-18T11:09:50.231Z,2.80
2023-05-18T11:12:41.425Z,2.92
2023-05-18T11:16:06.648Z,3.72
2023-05-18T11:19:07.966Z,3.03
2023-05-18T11:21:55.760Z,3.38
2023-05-18T11:24:43.458Z,3.05
2023-05-18T11:27:31.663Z,3.40
2023-05-18T11:30:29.251Z,4.15
2023-05-18T11:33:22.551Z,3.33
2023-05-18T11:36:14.982Z,2.95
2023-05-18T11:39:07.006Z,3.63
2023-05-18T11:42:01.855Z,3.47
2023-05-18T11:44:55.646Z,2.85
2023-05-18T11:47:43.315Z,2.90
2023-05-18T11:50:32.629Z,2.67
2023-05-18T11:53:25.961Z,2.30
2023-05-18T11:56:13.976Z,2.53
2023-05-18T11:59:15.256Z,2.47
2023-05-18T12:02:05.024Z,2.10
2023-05-18T12:04:56.798Z,2.38
2023-05-18T12:07:45.596Z,2.53
2023-05-18T12:10:37.132Z,2.63
2023-05-18T12:13:25.295Z,2.45
2023-05-18T12:16:15.941Z,3.42
2023-05-18T12:19:03.801Z,6.85
2023-05-18T12:21:51.588Z,3.42
2023-05-18T12:24:40.231Z,4.88
2023-05-18T12:27:30.152Z,6.10
2023-05-18T12:30:22.180Z,3.70
2023-05-18T12:33:13.543Z,4.88
2023-05-18T12:36:01.234Z,5.25
2023-05-18T12:38:51.294Z,6.03
2023-05-18T12:41:39.160Z,6.22
2023-05-18T12:44:28.328Z,7.10
2023-05-18T12:47:16.369Z,3.72
2023-05-18T12:50:04.991Z,4.57
2023-05-18T12:52:53.556Z,4.20
2023-05-18T12:55:41.662Z,4.65
2023-05-18T12:58:29.459Z,4.65
2023-05-18T13:01:18.513Z,4.38
2023-05-18T13:04:13.012Z,3.65
2023-05-18T13:07:01.295Z,5.10
2023-05-18T13:09:49.642Z,4.38
2023-05-18T13:12:40.674Z,4.32
2023-05-18T13:15:33.941Z,3.88
2023-05-18T13:18:22.992Z,4.13
2023-05-18T13:21:10.625Z,4.65
2023-05-18T13:23:58.384Z,4.40
2023-05-18T13:26:46.482Z,3.22
2023-05-18T13:29:34.552Z,4.32
2023-05-18T13:32:22.459Z,4.43
2023-05-18T13:35:12.174Z,4.18
2023-05-18T13:38:00.200Z,5.07
2023-05-18T13:40:48.045Z,3.95
2023-05-18T13:43:35.858Z,4.43
2023-05-18T13:46:23.622Z,4.57
2023-05-18T13:49:12.754Z,5.45
2023-05-18T13:52:01.686Z,4.35
2023-05-18T13:54:49.366Z,4.72
2023-05-18T13:57:37.385Z,4.10
2023-05-18T14:00:24.814Z,4.70
2023-05-18T14:03:12.513Z,4.43
2023-05-18T14:06:00.882Z,4.72
2023-05-18T14:08:49.972Z,4.50
2023-05-18T14:11:38.443Z,4.63
2023-05-18T14:14:26.177Z,4.68
2023-05-18T14:17:13.960Z,4.30
2023-05-18T14:20:02.683Z,4.78
2023-05-18T14:22:50.440Z,3.83
2023-05-18T14:25:39.725Z,4.32
2023-05-18T14:28:27.303Z,4.78
2023-05-18T14:31:14.870Z,4.05
2023-05-18T14:34:03.039Z,5.07
2023-05-18T14:36:50.765Z,4.57
2023-05-18T14:39:39.092Z,5.03
2023-05-18T14:42:28.203Z,4.75
2023-05-18T14:45:17.429Z,6.30
2023-05-18T14:48:05.995Z,2.70
2023-05-18T14:50:53.579Z,4.75
2023-05-18T14:53:41.033Z,4.00
2023-05-18T14:56:29.061Z,3.50
2023-05-18T14:59:18.304Z,3.15
2023-05-18T15:02:08.106Z,3.45
2023-05-18T15:04:56.125Z,6.38
2023-05-18T15:07:43.460Z,4.40
2023-05-18T15:10:31.638Z,5.05
2023-05-18T15:13:19.885Z,5.18
2023-05-18T15:16:10.983Z,5.65
2023-05-18T15:18:59.029Z,3.78
2023-05-18T15:21:46.958Z,3.35
2023-05-18T15:24:35.040Z,3.10
2023-05-18T15:27:23.077Z,2.42
2023-05-18T15:30:12.798Z,5.38
2023-05-18T15:33:04.520Z,3.30
2023-05-18T15:35:52.510Z,3.47
2023-05-18T15:38:40.224Z,4.82
2023-05-18T15:41:32.970Z,3.85
2023-05-18T15:44:20.529Z,3.00
2023-05-18T15:47:08.370Z,3.70
2023-05-18T15:49:58.190Z,3.63
2023-05-18T15:52:46.177Z,3.92
2023-05-18T15:55:33.988Z,3.47
2023-05-18T15:58:24.286Z,4.18
2023-05-18T16:01:12.494Z,2.80
2023-05-18T16:04:00.255Z,4.22
2023-05-18T16:06:49.351Z,3.00
2023-05-18T16:09:37.198Z,7.78
2023-05-18T16:12:24.836Z,4.97
2023-05-18T16:15:12.899Z,2.50
2023-05-18T16:18:00.562Z,2.10
2023-05-18T16:20:48.200Z,2.38
2023-05-18T16:23:37.166Z,3.00
2023-05-18T16:26:24.771Z,2.80
2023-05-18T16:29:12.335Z,1.88
2023-05-18T16:32:00.063Z,2.10
2023-05-18T16:34:48.000Z,3.75
2023-05-18T16:37:36.589Z,4.30
2023-05-18T16:40:25.738Z,2.75
2023-05-18T16:43:13.398Z,2.03
2023-05-18T16:46:04.466Z,2.33
2023-05-18T16:48:52.402Z,2.22
2023-05-18T16:51:39.971Z,1.92
2023-05-18T16:54:27.490Z,2.17
2023-05-18T16:57:17.247Z,2.35
2023-05-18T17:00:09.524Z,1.75
2023-05-18T17:02:59.645Z,2.30
2023-05-18T17:05:47.405Z,2.58
2023-05-18T17:08:35.377Z,1.70
2023-05-18T17:11:23.461Z,2.53
2023-05-18T17:14:12.687Z,2.00
2023-05-18T17:17:00.499Z,2.25
2023-05-18T17:19:48.333Z,2.03
2023-05-18T17:22:37.473Z,2.08
2023-05-18T17:25:25.467Z,2.10
2023-05-18T17:28:13.829Z,2.50
2023-05-18T17:31:03.261Z,3.10
2023-05-18T17:33:50.845Z,3.13
2023-05-18T17:36:38.537Z,4.53
2023-05-18T17:39:26.311Z,8.75
2023-05-18T17:42:14.192Z,2.75
2023-05-18T17:45:01.694Z,8.90
2023-05-18T17:47:50.466Z,9.00
2023-05-18T17:50:38.140Z,6.80
2023-05-18T17:53:25.803Z,7.40
2023-05-18T17:56:13.773Z,7.25
2023-05-18T17:59:02.177Z,2.70
2023-05-18T18:01:49.914Z,2.30
2023-05-18T18:04:38.883Z,2.70
2023-05-18T18:07:26.437Z,3.00
2023-05-18T18:10:13.912Z,1.83
2023-05-18T18:13:01.562Z,2.53
2023-05-18T18:15:49.230Z,2.00
2023-05-18T18:18:38.046Z,2.15
2023-05-18T18:21:27.092Z,3.53
2023-05-18T18:24:15.014Z,5.45
2023-05-18T18:27:03.037Z,3.00
2023-05-18T18:29:50.546Z,2.38
2023-05-18T18:32:39.332Z,3.13
2023-05-18T18:35:27.160Z,4.85
2023-05-18T18:38:16.143Z,4.22
2023-05-18T18:41:05.131Z,3.00
2023-05-18T18:43:54.873Z,3.33
2023-05-18T18:46:42.723Z,3.00
2023-05-18T18:49:30.628Z,2.53
2023-05-18T18:52:19.396Z,2.70
2023-05-18T18:55:09.274Z,2.08
2023-05-18T18:57:59.512Z,3.10
2023-05-18T19:00:47.276Z,2.90
2023-05-18T19:03:35.576Z,4.68
2023-05-18T19:06:23.471Z,2.40
2023-05-18T19:09:11.242Z,2.70
2023-05-18T19:12:00.229Z,2.67
2023-05-18T19:14:47.835Z,2.78
2023-05-18T19:17:35.314Z,3.38
2023-05-18T19:20:24.128Z,3.25
2023-05-18T19:23:11.864Z,2.63
2023-05-18T19:26:00.555Z,2.72
2023-05-18T19:28:49.660Z,3.75
2023-05-18T19:31:37.823Z,4.03
2023-05-18T19:34:26.130Z,3.55
2023-05-18T19:37:13.852Z,3.95
2023-05-18T19:40:01.394Z,4.03
2023-05-18T19:42:49.353Z,3.47
2023-05-18T19:45:38.753Z,2.90
2023-05-18T19:48:26.866Z,3.45
2023-05-18T19:51:14.394Z,2.55
2023-05-18T19:54:02.040Z,3.13
2023-05-18T19:56:49.837Z,3.22
2023-05-18T19:59:37.229Z,2.47
2023-05-18T20:02:26.382Z,3.00
2023-05-18T20:05:18.515Z,3.53
2023-05-18T20:08:07.543Z,3.33
2023-05-18T20:10:56.332Z,3.25
2023-05-18T20:13:44.905Z,5.30
2023-05-18T20:16:34.495Z,5.80
2023-05-18T20:19:23.496Z,10.73
2023-05-18T20:22:11.758Z,12.73
2023-05-18T20:25:01.134Z,6.18
2023-05-18T20:27:48.924Z,8.02
2023-05-18T20:30:36.397Z,4.88
2023-05-18T20:33:24.130Z,3.10
2023-05-18T20:36:14.110Z,2.67
2023-05-18T20:39:02.472Z,3.80
2023-05-18T20:41:50.499Z,3.40
2023-05-18T20:44:38.410Z,3.60
2023-05-18T20:47:26.360Z,3.63
2023-05-18T20:50:14.216Z,4.97
2023-05-18T20:53:03.161Z,4.63
2023-05-18T20:55:54.334Z,4.90
2023-05-18T20:58:48.495Z,5.38
2023-05-18T21:01:39.100Z,4.65
2023-05-18T21:04:27.354Z,4.43
2023-05-18T21:07:16.548Z,4.50
2023-05-18T21:10:07.194Z,4.03
2023-05-18T21:12:54.894Z,3.70
2023-05-18T21:15:42.573Z,3.75
2023-05-18T21:18:30.534Z,3.30
2023-05-18T21:21:18.173Z,3.03
2023-05-18T21:24:06.319Z,3.08
2023-05-18T21:26:55.894Z,2.70
2023-05-18T21:29:43.460Z,3.05
2023-05-18T21:32:31.209Z,2.70
2023-05-18T21:35:19.485Z,2.95
2023-05-18T21:38:07.455Z,3.03
2023-05-18T21:40:57.037Z,3.08
2023-05-18T21:43:45.937Z,3.28
2023-05-18T21:46:34.159Z,2.90
2023-05-18T21:49:22.053Z,2.53
2023-05-18T21:52:09.856Z,2.75
2023-05-18T21:54:57.652Z,3.00
2023-05-18T21:57:45.468Z,2.70
2023-05-18T22:00:35.463Z,3.08
2023-05-18T22:03:23.602Z,2.40
2023-05-18T22:06:11.324Z,2.40
2023-05-18T22:08:58.849Z,2.30
2023-05-18T22:11:46.477Z,2.95
2023-05-18T22:14:34.057Z,2.47
2023-05-18T22:17:22.872Z,2.60
2023-05-18T22:20:13.988Z,2.72
2023-05-18T22:23:01.750Z,2.40
2023-05-18T22:25:49.825Z,2.15
2023-05-18T22:28:37.442Z,2.33
2023-05-18T22:31:24.847Z,2.60
2023-05-18T22:34:13.742Z,3.08
2023-05-18T22:37:01.635Z,2.67
2023-05-18T22:39:49.222Z,2.88
2023-05-18T22:42:36.884Z,2.88
2023-05-18T22:45:24.758Z,2.58
2023-05-18T22:48:12.289Z,3.00
2023-05-18T22:51:04.056Z,3.20
2023-05-18T22:53:51.520Z,3.30
2023-05-18T22:56:39.146Z,3.10
2023-05-18T22:59:28.608Z,3.45
2023-05-18T23:02:16.307Z,3.67
2023-05-18T23:05:04.942Z,4.13
2023-05-18T23:07:57.695Z,5.07
2023-05-18T23:10:45.328Z,5.95
2023-05-18T23:13:33.166Z,9.73
2023-05-18T23:16:21.037Z,8.35
2023-05-18T23:19:09.435Z,11.55
2023-05-18T23:21:57.572Z,11.65
2023-05-18T23:24:46.687Z,11.20
2023-05-18T23:27:37.172Z,9.93
2023-05-18T23:30:25.145Z,8.40
2023-05-18T23:33:14.806Z,8.40
2023-05-18T23:36:03.937Z,7.07
2023-05-18T23:38:53.181Z,5.13
2023-05-18T23:41:44.573Z,4.50
2023-05-18T23:44:32.905Z,3.40
2023-05-18T23:47:22.012Z,3.20
2023-05-18T23:50:10.979Z,2.55
2023-05-18T23:53:05.506Z,2.50
2023-05-18T23:55:53.709Z,2.40
2023-05-18T23:58:46.942Z,2.50
